Ararat, Virginia
Current Conditions -  °F | °C
As of 11:55 PM on Monday 22 Dec 2014 (Local Time) from KMWK Reporting Station
Haze Haze  
Wind Chill:   Ceiling: 400
Heat Index:   Visibility: 4mi
Dew Point:   Wind: 0mph
Humidity: 92%   Direction: NA
Pressure: 30.04"   Gusts: NA
Location:  36.6°N, 80.51°W
Report Text: KMWK 230455Z AUTO 00000KT 4SM BR BKN004 OVC010 03/02 A3004 RMK AO2 T00340022
Loading
Personal Weather Stations






























Interactive Weather Map New forecast layout! Learn more

10-Day Weather Forecast

Advertisements
Track Severe Weather on mobile